sensor_id;sensor_type;location;lat;lon;timestamp;pressure;altitude;pressure_sealevel;temperature;humidity
9249;BME280;4660;41.768;26.198;2023-01-08T00:01:03;101651.34;;;2.73;100.00
9249;BME280;4660;41.768;26.198;2023-01-08T00:03:28;101640.13;;;2.66;100.00
9249;BME280;4660;41.768;26.198;2023-01-08T00:05:54;101645.97;;;2.74;100.00
9249;BME280;4660;41.768;26.198;2023-01-08T00:08:19;101646.75;;;2.76;100.00
9249;BME280;4660;41.768;26.198;2023-01-08T00:10:53;101644.69;;;2.83;100.00
9249;BME280;4660;41.768;26.198;2023-01-08T00:13:18;101645.63;;;2.82;100.00
9249;BME280;4660;41.768;26.198;2023-01-08T00:15:44;101646.03;;;2.73;100.00
9249;BME280;4660;41.768;26.198;2023-01-08T00:18:09;101638.41;;;2.65;100.00
9249;BME280;4660;41.768;26.198;2023-01-08T00:20:35;101656.47;;;2.57;100.00
9249;BME280;4660;41.768;26.198;2023-01-08T00:23:00;101646.66;;;2.39;100.00
9249;BME280;4660;41.768;26.198;2023-01-08T00:25:26;101632.16;;;2.26;100.00
9249;BME280;4660;41.768;26.198;2023-01-08T00:27:52;101660.91;;;2.57;100.00
9249;BME280;4660;41.768;26.198;2023-01-08T00:30:17;101648.69;;;2.53;100.00
9249;BME280;4660;41.768;26.198;2023-01-08T00:32:42;101656.25;;;2.62;100.00
9249;BME280;4660;41.768;26.198;2023-01-08T00:35:08;101652.41;;;2.28;100.00
9249;BME280;4660;41.768;26.198;2023-01-08T00:37:34;101652.00;;;2.17;100.00
9249;BME280;4660;41.768;26.198;2023-01-08T00:39:59;101651.00;;;2.19;100.00
9249;BME280;4660;41.768;26.198;2023-01-08T00:42:25;101652.66;;;2.02;100.00
9249;BME280;4660;41.768;26.198;2023-01-08T00:44:50;101656.66;;;1.90;100.00
9249;BME280;4660;41.768;26.198;2023-01-08T00:47:16;101642.53;;;1.89;100.00
9249;BME280;4660;41.768;26.198;2023-01-08T00:49:41;101658.19;;;2.17;100.00
9249;BME280;4660;41.768;26.198;2023-01-08T00:52:06;101664.75;;;2.09;100.00
9249;BME280;4660;41.768;26.198;2023-01-08T00:54:32;101663.00;;;1.64;100.00
9249;BME280;4660;41.768;26.198;2023-01-08T00:56:57;101648.28;;;2.01;100.00
9249;BME280;4660;41.768;26.198;2023-01-08T00:59:23;101659.72;;;2.23;100.00
9249;BME280;4660;41.768;26.198;2023-01-08T01:01:49;101648.56;;;2.15;100.00
9249;BME280;4660;41.768;26.198;2023-01-08T01:04:14;101661.66;;;1.76;100.00
9249;BME280;4660;41.768;26.198;2023-01-08T01:06:40;101661.28;;;1.63;100.00
9249;BME280;4660;41.768;26.198;2023-01-08T01:09:06;101661.53;;;1.57;100.00
9249;BME280;4660;41.768;26.198;2023-01-08T01:11:32;101657.22;;;1.54;100.00
9249;BME280;4660;41.768;26.198;2023-01-08T01:13:58;101656.19;;;1.58;100.00
9249;BME280;4660;41.768;26.198;2023-01-08T01:16:24;101649.09;;;1.35;100.00
9249;BME280;4660;41.768;26.198;2023-01-08T01:18:50;101634.91;;;1.60;100.00
9249;BME280;4660;41.768;26.198;2023-01-08T01:21:28;101657.69;;;1.64;100.00
9249;BME280;4660;41.768;26.198;2023-01-08T01:23:56;101647.97;;;1.86;100.00
9249;BME280;4660;41.768;26.198;2023-01-08T01:26:23;101639.88;;;1.89;100.00
9249;BME280;4660;41.768;26.198;2023-01-08T01:28:50;101646.38;;;1.82;100.00
9249;BME280;4660;41.768;26.198;2023-01-08T01:31:17;101638.53;;;1.79;100.00
9249;BME280;4660;41.768;26.198;2023-01-08T01:33:43;101651.47;;;2.09;100.00
9249;BME280;4660;41.768;26.198;2023-01-08T01:36:14;101652.50;;;2.05;100.00
9249;BME280;4660;41.768;26.198;2023-01-08T01:38:44;101639.91;;;2.10;100.00
9249;BME280;4660;41.768;26.198;2023-01-08T01:43:47;101644.81;;;2.19;100.00
9249;BME280;4660;41.768;26.198;2023-01-08T01:46:19;101632.31;;;2.43;100.00
9249;BME280;4660;41.768;26.198;2023-01-08T01:48:50;101629.84;;;2.59;100.00
9249;BME280;4660;41.768;26.198;2023-01-08T01:51:18;101630.63;;;2.61;100.00
9249;BME280;4660;41.768;26.198;2023-01-08T01:53:44;101641.66;;;2.52;100.00
9249;BME280;4660;41.768;26.198;2023-01-08T01:56:10;101640.28;;;2.43;100.00
9249;BME280;4660;41.768;26.198;2023-01-08T01:58:36;101645.44;;;2.46;100.00
9249;BME280;4660;41.768;26.198;2023-01-08T02:01:04;101647.25;;;2.45;100.00
9249;BME280;4660;41.768;26.198;2023-01-08T02:03:37;101635.75;;;2.45;100.00
9249;BME280;4660;41.768;26.198;2023-01-08T02:14:24;101616.72;;;2.15;100.00
9249;BME280;4660;41.768;26.198;2023-01-08T02:17:00;101629.03;;;2.16;100.00
9249;BME280;4660;41.768;26.198;2023-01-08T02:24:45;101630.22;;;2.09;100.00
9249;BME280;4660;41.768;26.198;2023-01-08T02:27:16;101617.06;;;2.06;100.00
9249;BME280;4660;41.768;26.198;2023-01-08T02:29:43;101603.53;;;1.91;100.00
9249;BME280;4660;41.768;26.198;2023-01-08T02:32:09;101617.00;;;1.87;100.00
9249;BME280;4660;41.768;26.198;2023-01-08T02:34:34;101614.78;;;1.76;100.00
9249;BME280;4660;41.768;26.198;2023-01-08T02:37:00;101608.53;;;1.77;100.00
9249;BME280;4660;41.768;26.198;2023-01-08T02:45:03;101603.78;;;1.63;100.00
9249;BME280;4660;41.768;26.198;2023-01-08T02:47:41;101604.56;;;1.67;100.00
9249;BME280;4660;41.768;26.198;2023-01-08T02:50:21;101602.94;;;1.41;100.00
9249;BME280;4660;41.768;26.198;2023-01-08T02:55:45;101625.59;;;0.81;100.00
9249;BME280;4660;41.768;26.198;2023-01-08T02:58:13;101622.81;;;0.84;100.00
9249;BME280;4660;41.768;26.198;2023-01-08T03:00:40;101622.63;;;0.65;100.00
9249;BME280;4660;41.768;26.198;2023-01-08T03:03:12;101615.41;;;0.45;100.00
9249;BME280;4660;41.768;26.198;2023-01-08T03:05:40;101622.28;;;0.74;100.00
9249;BME280;4660;41.768;26.198;2023-01-08T03:08:08;101621.66;;;0.43;100.00
9249;BME280;4660;41.768;26.198;2023-01-08T03:10:36;101617.00;;;0.49;100.00
9249;BME280;4660;41.768;26.198;2023-01-08T03:13:06;101605.75;;;0.44;100.00
9249;BME280;4660;41.768;26.198;2023-01-08T03:15:46;101621.13;;;0.58;100.00
9249;BME280;4660;41.768;26.198;2023-01-08T03:18:18;101624.44;;;0.40;100.00
9249;BME280;4660;41.768;26.198;2023-01-08T03:20:46;101617.19;;;0.20;100.00
9249;BME280;4660;41.768;26.198;2023-01-08T03:23:13;101603.03;;;0.21;100.00
9249;BME280;4660;41.768;26.198;2023-01-08T03:25:42;101619.00;;;0.43;100.00
9249;BME280;4660;41.768;26.198;2023-01-08T03:28:22;101624.50;;;0.38;100.00
9249;BME280;4660;41.768;26.198;2023-01-08T03:30:51;101604.81;;;0.45;100.00
9249;BME280;4660;41.768;26.198;2023-01-08T03:33:18;101620.78;;;0.67;100.00
9249;BME280;4660;41.768;26.198;2023-01-08T03:35:47;101602.31;;;0.66;100.00
9249;BME280;4660;41.768;26.198;2023-01-08T03:38:20;101606.06;;;0.83;100.00
9249;BME280;4660;41.768;26.198;2023-01-08T03:40:51;101604.84;;;0.69;100.00
9249;BME280;4660;41.768;26.198;2023-01-08T03:43:18;101611.91;;;0.68;100.00
9249;BME280;4660;41.768;26.198;2023-01-08T03:45:49;101613.94;;;0.85;100.00
9249;BME280;4660;41.768;26.198;2023-01-08T03:48:17;101618.06;;;0.94;100.00
9249;BME280;4660;41.768;26.198;2023-01-08T03:50:44;101617.19;;;0.93;100.00
9249;BME280;4660;41.768;26.198;2023-01-08T03:53:10;101618.28;;;0.88;100.00
9249;BME280;4660;41.768;26.198;2023-01-08T03:55:35;101613.44;;;0.75;100.00
9249;BME280;4660;41.768;26.198;2023-01-08T03:58:01;101628.16;;;0.59;100.00
9249;BME280;4660;41.768;26.198;2023-01-08T04:00:26;101626.50;;;0.80;100.00
9249;BME280;4660;41.768;26.198;2023-01-08T04:02:52;101603.28;;;0.63;100.00
9249;BME280;4660;41.768;26.198;2023-01-08T04:05:17;101620.66;;;0.70;100.00
9249;BME280;4660;41.768;26.198;2023-01-08T04:07:42;101632.16;;;0.46;100.00
9249;BME280;4660;41.768;26.198;2023-01-08T04:10:08;101628.63;;;0.20;100.00
9249;BME280;4660;41.768;26.198;2023-01-08T04:12:34;101632.41;;;0.13;100.00
9249;BME280;4660;41.768;26.198;2023-01-08T04:14:59;101623.91;;;0.28;100.00
9249;BME280;4660;41.768;26.198;2023-01-08T04:17:25;101629.78;;;0.38;100.00
9249;BME280;4660;41.768;26.198;2023-01-08T04:19:51;101640.31;;;0.40;100.00
9249;BME280;4660;41.768;26.198;2023-01-08T04:22:16;101643.06;;;0.37;100.00
9249;BME280;4660;41.768;26.198;2023-01-08T04:24:42;101642.84;;;0.18;100.00
9249;BME280;4660;41.768;26.198;2023-01-08T04:27:07;101642.97;;;0.40;100.00
9249;BME280;4660;41.768;26.198;2023-01-08T04:29:32;101623.13;;;0.51;100.00
9249;BME280;4660;41.768;26.198;2023-01-08T04:31:59;101631.16;;;0.48;100.00
9249;BME280;4660;41.768;26.198;2023-01-08T04:34:24;101632.25;;;0.43;100.00
9249;BME280;4660;41.768;26.198;2023-01-08T04:36:50;101634.00;;;0.44;100.00
9249;BME280;4660;41.768;26.198;2023-01-08T04:39:15;101626.31;;;0.11;100.00
9249;BME280;4660;41.768;26.198;2023-01-08T04:41:41;101633.59;;;0.54;100.00
9249;BME280;4660;41.768;26.198;2023-01-08T04:44:06;101645.34;;;0.72;100.00
9249;BME280;4660;41.768;26.198;2023-01-08T04:46:32;101616.69;;;0.59;100.00
9249;BME280;4660;41.768;26.198;2023-01-08T04:48:57;101638.38;;;0.45;100.00
9249;BME280;4660;41.768;26.198;2023-01-08T04:51:23;101603.84;;;0.23;100.00
9249;BME280;4660;41.768;26.198;2023-01-08T04:53:50;101631.06;;;0.26;100.00
9249;BME280;4660;41.768;26.198;2023-01-08T04:56:16;101607.31;;;0.00;100.00
9249;BME280;4660;41.768;26.198;2023-01-08T04:58:41;101651.13;;;0.07;100.00
9249;BME280;4660;41.768;26.198;2023-01-08T05:01:17;101647.88;;;-0.01;100.00
9249;BME280;4660;41.768;26.198;2023-01-08T05:03:43;101647.66;;;0.05;100.00
9249;BME280;4660;41.768;26.198;2023-01-08T05:06:09;101635.47;;;-0.25;100.00
9249;BME280;4660;41.768;26.198;2023-01-08T05:08:36;101640.38;;;-0.13;100.00
9249;BME280;4660;41.768;26.198;2023-01-08T05:11:02;101652.72;;;-0.14;100.00
9249;BME280;4660;41.768;26.198;2023-01-08T05:13:28;101649.06;;;-0.38;100.00
9249;BME280;4660;41.768;26.198;2023-01-08T05:15:57;101627.84;;;-0.35;100.00
9249;BME280;4660;41.768;26.198;2023-01-08T05:18:23;101649.63;;;0.00;100.00
9249;BME280;4660;41.768;26.198;2023-01-08T05:20:48;101633.69;;;-0.25;100.00
9249;BME280;4660;41.768;26.198;2023-01-08T05:23:14;101632.44;;;-0.15;100.00
9249;BME280;4660;41.768;26.198;2023-01-08T05:25:40;101650.69;;;-0.06;100.00
9249;BME280;4660;41.768;26.198;2023-01-08T05:28:05;101655.81;;;-0.28;100.00
9249;BME280;4660;41.768;26.198;2023-01-08T05:30:31;101656.44;;;-0.19;100.00
9249;BME280;4660;41.768;26.198;2023-01-08T05:32:56;101657.13;;;0.12;100.00
9249;BME280;4660;41.768;26.198;2023-01-08T05:35:22;101640.13;;;0.19;100.00
9249;BME280;4660;41.768;26.198;2023-01-08T05:37:47;101649.97;;;0.41;100.00
9249;BME280;4660;41.768;26.198;2023-01-08T05:40:13;101647.06;;;0.23;100.00
9249;BME280;4660;41.768;26.198;2023-01-08T05:42:38;101647.19;;;-0.06;100.00
9249;BME280;4660;41.768;26.198;2023-01-08T05:45:05;101656.44;;;-0.19;100.00
9249;BME280;4660;41.768;26.198;2023-01-08T05:47:32;101664.16;;;-0.13;100.00
9249;BME280;4660;41.768;26.198;2023-01-08T05:49:58;101666.75;;;-0.12;100.00
9249;BME280;4660;41.768;26.198;2023-01-08T05:52:25;101673.22;;;-0.20;100.00
9249;BME280;4660;41.768;26.198;2023-01-08T05:54:51;101653.00;;;-0.23;100.00
9249;BME280;4660;41.768;26.198;2023-01-08T05:57:16;101672.13;;;0.12;100.00
9249;BME280;4660;41.768;26.198;2023-01-08T05:59:42;101667.66;;;-0.13;100.00
9249;BME280;4660;41.768;26.198;2023-01-08T06:02:08;101665.69;;;-0.06;100.00
9249;BME280;4660;41.768;26.198;2023-01-08T06:04:36;101572.78;;;-0.76;100.00
9249;BME280;4660;41.768;26.198;2023-01-08T06:07:06;101655.84;;;-0.03;100.00
9249;BME280;4660;41.768;26.198;2023-01-08T06:09:34;101607.66;;;-0.65;100.00
9249;BME280;4660;41.768;26.198;2023-01-08T06:12:00;101691.19;;;-0.32;100.00
9249;BME280;4660;41.768;26.198;2023-01-08T06:14:27;101694.06;;;-0.11;100.00
9249;BME280;4660;41.768;26.198;2023-01-08T06:16:53;101697.13;;;0.03;100.00
9249;BME280;4660;41.768;26.198;2023-01-08T06:19:19;101591.81;;;-0.39;100.00
9249;BME280;4660;41.768;26.198;2023-01-08T06:21:45;101699.88;;;0.26;100.00
9249;BME280;4660;41.768;26.198;2023-01-08T06:24:11;101561.78;;;-0.63;100.00
9249;BME280;4660;41.768;26.198;2023-01-08T06:26:37;101583.50;;;-0.26;100.00
9249;BME280;4660;41.768;26.198;2023-01-08T06:29:03;101708.13;;;0.44;100.00
9249;BME280;4660;41.768;26.198;2023-01-08T06:31:30;101715.88;;;0.48;100.00
9249;BME280;4660;41.768;26.198;2023-01-08T06:33:59;101585.56;;;-0.36;100.00
9249;BME280;4660;41.768;26.198;2023-01-08T06:36:24;101713.50;;;0.41;100.00
9249;BME280;4660;41.768;26.198;2023-01-08T06:38:50;101695.38;;;0.28;100.00
9249;BME280;4660;41.768;26.198;2023-01-08T06:41:16;101717.53;;;0.52;100.00
9249;BME280;4660;41.768;26.198;2023-01-08T06:43:41;101714.09;;;0.49;100.00
9249;BME280;4660;41.768;26.198;2023-01-08T06:46:09;101718.47;;;0.50;100.00
9249;BME280;4660;41.768;26.198;2023-01-08T06:48:35;101710.97;;;0.38;100.00
9249;BME280;4660;41.768;26.198;2023-01-08T06:51:02;101712.31;;;0.49;100.00
9249;BME280;4660;41.768;26.198;2023-01-08T06:53:28;101725.88;;;0.40;100.00
9249;BME280;4660;41.768;26.198;2023-01-08T06:55:53;101711.44;;;0.50;100.00
9249;BME280;4660;41.768;26.198;2023-01-08T06:58:22;101718.25;;;0.56;100.00
9249;BME280;4660;41.768;26.198;2023-01-08T07:00:48;101726.38;;;0.51;100.00
9249;BME280;4660;41.768;26.198;2023-01-08T07:03:14;101727.25;;;0.52;100.00
9249;BME280;4660;41.768;26.198;2023-01-08T07:05:40;101723.91;;;0.72;100.00
9249;BME280;4660;41.768;26.198;2023-01-08T07:08:05;101706.91;;;0.77;100.00
9249;BME280;4660;41.768;26.198;2023-01-08T07:10:36;101729.69;;;1.31;100.00
9249;BME280;4660;41.768;26.198;2023-01-08T07:13:01;101702.47;;;1.03;100.00
9249;BME280;4660;41.768;26.198;2023-01-08T07:15:27;101737.06;;;1.23;100.00
9249;BME280;4660;41.768;26.198;2023-01-08T07:17:52;101725.34;;;1.05;100.00
9249;BME280;4660;41.768;26.198;2023-01-08T07:20:18;101739.59;;;1.26;100.00
9249;BME280;4660;41.768;26.198;2023-01-08T07:22:44;101738.91;;;1.68;100.00
9249;BME280;4660;41.768;26.198;2023-01-08T07:25:09;101716.38;;;1.78;100.00
9249;BME280;4660;41.768;26.198;2023-01-08T07:27:36;101713.13;;;1.93;100.00
9249;BME280;4660;41.768;26.198;2023-01-08T07:30:04;101703.72;;;2.07;100.00
9249;BME280;4660;41.768;26.198;2023-01-08T07:32:45;101737.78;;;2.39;100.00
9249;BME280;4660;41.768;26.198;2023-01-08T07:35:11;101660.22;;;2.11;100.00
9249;BME280;4660;41.768;26.198;2023-01-08T07:37:41;101735.84;;;2.65;100.00
9249;BME280;4660;41.768;26.198;2023-01-08T07:40:11;101639.13;;;2.08;100.00
9249;BME280;4660;41.768;26.198;2023-01-08T07:42:37;101659.72;;;2.23;100.00
9249;BME280;4660;41.768;26.198;2023-01-08T07:45:06;101599.94;;;1.92;100.00
9249;BME280;4660;41.768;26.198;2023-01-08T07:47:33;101729.72;;;2.83;100.00
9249;BME280;4660;41.768;26.198;2023-01-08T07:50:01;101684.16;;;2.52;100.00
9249;BME280;4660;41.768;26.198;2023-01-08T07:52:33;101634.81;;;2.46;100.00
9249;BME280;4660;41.768;26.198;2023-01-08T07:55:00;101611.94;;;2.23;100.00
9249;BME280;4660;41.768;26.198;2023-01-08T07:57:28;101663.38;;;2.41;100.00
9249;BME280;4660;41.768;26.198;2023-01-08T07:59:54;101738.56;;;2.84;100.00
9249;BME280;4660;41.768;26.198;2023-01-08T08:02:21;101716.69;;;2.77;100.00
9249;BME280;4660;41.768;26.198;2023-01-08T08:04:47;101638.19;;;2.49;100.00
9249;BME280;4660;41.768;26.198;2023-01-08T08:07:13;101652.22;;;2.73;100.00
9249;BME280;4660;41.768;26.198;2023-01-08T08:09:39;101665.00;;;2.84;100.00
9249;BME280;4660;41.768;26.198;2023-01-08T08:12:07;101749.44;;;3.57;100.00
9249;BME280;4660;41.768;26.198;2023-01-08T08:14:33;101714.47;;;3.46;100.00
9249;BME280;4660;41.768;26.198;2023-01-08T08:16:59;101722.72;;;3.78;100.00
9249;BME280;4660;41.768;26.198;2023-01-08T08:19:25;101712.88;;;3.61;100.00
9249;BME280;4660;41.768;26.198;2023-01-08T08:21:50;101731.94;;;3.90;100.00
9249;BME280;4660;41.768;26.198;2023-01-08T08:24:16;101707.41;;;3.83;100.00
9249;BME280;4660;41.768;26.198;2023-01-08T08:26:41;101739.84;;;4.27;100.00
9249;BME280;4660;41.768;26.198;2023-01-08T08:29:07;101722.91;;;4.28;100.00
9249;BME280;4660;41.768;26.198;2023-01-08T08:31:32;101713.63;;;4.54;100.00
9249;BME280;4660;41.768;26.198;2023-01-08T08:33:58;101714.81;;;4.66;100.00
9249;BME280;4660;41.768;26.198;2023-01-08T08:36:28;101731.56;;;4.68;100.00
9249;BME280;4660;41.768;26.198;2023-01-08T08:38:53;101711.81;;;4.72;100.00
9249;BME280;4660;41.768;26.198;2023-01-08T08:41:19;101722.69;;;5.02;100.00
9249;BME280;4660;41.768;26.198;2023-01-08T08:43:44;101730.66;;;5.19;100.00
9249;BME280;4660;41.768;26.198;2023-01-08T08:46:10;101731.78;;;5.15;100.00
9249;BME280;4660;41.768;26.198;2023-01-08T08:48:36;101720.16;;;5.16;100.00
9249;BME280;4660;41.768;26.198;2023-01-08T08:51:03;101739.41;;;5.39;100.00
9249;BME280;4660;41.768;26.198;2023-01-08T08:53:28;101705.75;;;5.36;100.00
9249;BME280;4660;41.768;26.198;2023-01-08T08:55:57;101725.81;;;5.59;100.00
9249;BME280;4660;41.768;26.198;2023-01-08T08:58:22;101730.56;;;5.70;100.00
9249;BME280;4660;41.768;26.198;2023-01-08T09:00:48;101728.50;;;5.75;100.00
9249;BME280;4660;41.768;26.198;2023-01-08T09:03:14;101727.34;;;5.96;100.00
9249;BME280;4660;41.768;26.198;2023-01-08T09:05:40;101723.03;;;5.94;100.00
9249;BME280;4660;41.768;26.198;2023-01-08T09:13:32;101710.91;;;6.34;100.00
9249;BME280;4660;41.768;26.198;2023-01-08T09:16:00;101625.06;;;5.94;100.00
9249;BME280;4660;41.768;26.198;2023-01-08T09:18:26;101705.38;;;6.67;100.00
9249;BME280;4660;41.768;26.198;2023-01-08T09:20:54;101681.19;;;6.54;100.00
9249;BME280;4660;41.768;26.198;2023-01-08T09:23:19;101690.00;;;6.71;100.00
9249;BME280;4660;41.768;26.198;2023-01-08T09:25:45;101698.13;;;6.83;100.00
9249;BME280;4660;41.768;26.198;2023-01-08T09:28:11;101661.81;;;6.51;100.00
9249;BME280;4660;41.768;26.198;2023-01-08T09:30:43;101602.50;;;6.44;100.00
9249;BME280;4660;41.768;26.198;2023-01-08T09:33:09;101691.22;;;7.09;100.00
9249;BME280;4660;41.768;26.198;2023-01-08T09:35:36;101654.97;;;6.89;100.00
9249;BME280;4660;41.768;26.198;2023-01-08T09:38:02;101604.16;;;7.04;100.00
9249;BME280;4660;41.768;26.198;2023-01-08T09:43:04;101682.41;;;7.77;100.00
9249;BME280;4660;41.768;26.198;2023-01-08T09:45:34;101667.88;;;7.81;100.00
9249;BME280;4660;41.768;26.198;2023-01-08T09:48:06;101592.06;;;7.66;100.00
9249;BME280;4660;41.768;26.198;2023-01-08T09:53:15;101636.78;;;8.06;100.00
9249;BME280;4660;41.768;26.198;2023-01-08T09:55:58;101651.13;;;8.32;100.00
9249;BME280;4660;41.768;26.198;2023-01-08T09:58:50;101661.19;;;8.68;100.00
9249;BME280;4660;41.768;26.198;2023-01-08T10:04:59;101647.75;;;8.68;100.00
9249;BME280;4660;41.768;26.198;2023-01-08T10:07:55;101633.06;;;8.99;100.00
9249;BME280;4660;41.768;26.198;2023-01-08T10:10:48;101631.88;;;8.90;100.00
9249;BME280;4660;41.768;26.198;2023-01-08T10:13:51;101592.41;;;8.67;100.00
9249;BME280;4660;41.768;26.198;2023-01-08T10:16:32;101612.78;;;8.95;100.00
9249;BME280;4660;41.768;26.198;2023-01-08T10:19:02;101619.41;;;9.15;100.00
9249;BME280;4660;41.768;26.198;2023-01-08T10:21:31;101616.97;;;9.35;100.00
9249;BME280;4660;41.768;26.198;2023-01-08T10:27:35;101598.22;;;9.59;100.00
9249;BME280;4660;41.768;26.198;2023-01-08T10:30:37;101567.94;;;9.57;100.00
9249;BME280;4660;41.768;26.198;2023-01-08T10:35:57;101513.28;;;9.70;100.00
9249;BME280;4660;41.768;26.198;2023-01-08T10:38:31;101487.91;;;9.74;100.00
9249;BME280;4660;41.768;26.198;2023-01-08T10:46:35;101489.91;;;10.05;100.00
9249;BME280;4660;41.768;26.198;2023-01-08T10:49:42;101447.94;;;9.69;100.00
9249;BME280;4660;41.768;26.198;2023-01-08T10:52:50;101457.44;;;9.62;100.00
9249;BME280;4660;41.768;26.198;2023-01-08T10:55:41;101557.00;;;10.31;100.00
9249;BME280;4660;41.768;26.198;2023-01-08T10:58:17;101544.47;;;10.18;100.00
9249;BME280;4660;41.768;26.198;2023-01-08T11:00:43;101523.75;;;10.32;100.00
9249;BME280;4660;41.768;26.198;2023-01-08T11:03:22;101545.56;;;10.51;100.00
9249;BME280;4660;41.768;26.198;2023-01-08T11:05:50;101548.22;;;10.62;100.00
9249;BME280;4660;41.768;26.198;2023-01-08T11:08:17;101546.53;;;10.72;100.00
9249;BME280;4660;41.768;26.198;2023-01-08T11:10:59;101549.59;;;10.90;100.00
9249;BME280;4660;41.768;26.198;2023-01-08T11:13:25;101547.63;;;10.92;100.00
9249;BME280;4660;41.768;26.198;2023-01-08T11:16:15;101535.03;;;10.82;100.00
9249;BME280;4660;41.768;26.198;2023-01-08T11:18:47;101549.72;;;10.89;100.00
9249;BME280;4660;41.768;26.198;2023-01-08T11:21:27;101543.22;;;11.02;100.00
9249;BME280;4660;41.768;26.198;2023-01-08T11:26:39;101484.47;;;10.85;100.00
9249;BME280;4660;41.768;26.198;2023-01-08T11:32:44;101540.84;;;11.32;100.00
9249;BME280;4660;41.768;26.198;2023-01-08T11:35:30;101542.28;;;11.36;100.00
9249;BME280;4660;41.768;26.198;2023-01-08T11:38:03;101542.91;;;11.50;100.00
9249;BME280;4660;41.768;26.198;2023-01-08T11:46:25;101528.78;;;11.58;100.00
9249;BME280;4660;41.768;26.198;2023-01-08T11:49:35;101526.53;;;11.63;100.00
9249;BME280;4660;41.768;26.198;2023-01-08T11:52:14;101528.00;;;11.67;100.00
9249;BME280;4660;41.768;26.198;2023-01-08T11:55:01;101520.63;;;11.80;100.00
9249;BME280;4660;41.768;26.198;2023-01-08T12:01:18;101511.91;;;11.77;100.00
9249;BME280;4660;41.768;26.198;2023-01-08T12:07:29;101507.72;;;11.84;100.00
9249;BME280;4660;41.768;26.198;2023-01-08T12:10:53;101499.97;;;11.91;100.00
9249;BME280;4660;41.768;26.198;2023-01-08T12:16:03;101500.91;;;12.01;100.00
9249;BME280;4660;41.768;26.198;2023-01-08T12:21:57;101496.81;;;12.27;100.00
9249;BME280;4660;41.768;26.198;2023-01-08T12:35:57;101493.16;;;12.07;100.00
9249;BME280;4660;41.768;26.198;2023-01-08T12:38:50;101477.84;;;12.08;100.00
9249;BME280;4660;41.768;26.198;2023-01-08T12:41:23;101489.25;;;12.21;100.00
9249;BME280;4660;41.768;26.198;2023-01-08T12:43:58;101485.84;;;12.19;100.00
9249;BME280;4660;41.768;26.198;2023-01-08T12:46:35;101482.41;;;12.17;100.00
9249;BME280;4660;41.768;26.198;2023-01-08T12:49:27;101467.47;;;12.13;100.00
9249;BME280;4660;41.768;26.198;2023-01-08T12:52:24;101431.00;;;11.88;100.00
9249;BME280;4660;41.768;26.198;2023-01-08T12:55:38;101494.75;;;12.40;100.00
9249;BME280;4660;41.768;26.198;2023-01-08T12:58:04;101485.31;;;12.56;100.00
9249;BME280;4660;41.768;26.198;2023-01-08T13:00:41;101458.03;;;12.28;100.00
9249;BME280;4660;41.768;26.198;2023-01-08T13:03:18;101484.25;;;12.37;100.00
9249;BME280;4660;41.768;26.198;2023-01-08T13:05:48;101400.28;;;11.79;100.00
9249;BME280;4660;41.768;26.198;2023-01-08T13:08:32;101473.00;;;12.32;100.00
9249;BME280;4660;41.768;26.198;2023-01-08T13:11:01;101426.59;;;12.08;100.00
9249;BME280;4660;41.768;26.198;2023-01-08T13:13:38;101462.53;;;12.18;100.00
9249;BME280;4660;41.768;26.198;2023-01-08T13:18:58;101492.09;;;12.20;100.00
9249;BME280;4660;41.768;26.198;2023-01-08T13:21:28;101484.66;;;12.12;100.00
9249;BME280;4660;41.768;26.198;2023-01-08T13:24:03;101460.84;;;12.17;100.00
9249;BME280;4660;41.768;26.198;2023-01-08T13:26:34;101480.81;;;12.35;100.00
9249;BME280;4660;41.768;26.198;2023-01-08T13:29:35;101493.34;;;12.36;100.00
9249;BME280;4660;41.768;26.198;2023-01-08T13:32:02;101471.25;;;12.01;100.00
9249;BME280;4660;41.768;26.198;2023-01-08T13:34:38;101472.97;;;12.02;100.00
9249;BME280;4660;41.768;26.198;2023-01-08T13:37:23;101481.09;;;11.91;100.00
9249;BME280;4660;41.768;26.198;2023-01-08T13:39:51;101490.56;;;12.06;100.00
9249;BME280;4660;41.768;26.198;2023-01-08T13:42:24;101500.84;;;12.12;100.00
9249;BME280;4660;41.768;26.198;2023-01-08T13:44:58;101471.78;;;11.95;100.00
9249;BME280;4660;41.768;26.198;2023-01-08T13:49:55;101467.28;;;11.84;100.00
9249;BME280;4660;41.768;26.198;2023-01-08T13:53:02;101507.22;;;11.90;100.00
9249;BME280;4660;41.768;26.198;2023-01-08T13:55:39;101428.91;;;11.39;100.00
9249;BME280;4660;41.768;26.198;2023-01-08T13:58:16;101515.06;;;11.93;100.00
9249;BME280;4660;41.768;26.198;2023-01-08T14:00:46;101458.72;;;11.79;100.00
9249;BME280;4660;41.768;26.198;2023-01-08T14:03:34;101499.97;;;11.91;100.00
9249;BME280;4660;41.768;26.198;2023-01-08T14:06:16;101437.22;;;11.36;100.00
9249;BME280;4660;41.768;26.198;2023-01-08T14:08:56;101492.47;;;11.62;100.00
9249;BME280;4660;41.768;26.198;2023-01-08T14:11:49;101488.81;;;11.63;100.00
9249;BME280;4660;41.768;26.198;2023-01-08T14:14:20;101473.78;;;11.49;100.00
9249;BME280;4660;41.768;26.198;2023-01-08T14:16:53;101473.34;;;11.44;100.00
9249;BME280;4660;41.768;26.198;2023-01-08T14:19:25;101468.34;;;11.28;100.00
9249;BME280;4660;41.768;26.198;2023-01-08T14:22:02;101494.16;;;11.42;100.00
9249;BME280;4660;41.768;26.198;2023-01-08T14:24:32;101488.47;;;11.24;100.00
9249;BME280;4660;41.768;26.198;2023-01-08T14:27:21;101459.75;;;11.02;100.00
9249;BME280;4660;41.768;26.198;2023-01-08T14:29:48;101438.84;;;10.95;100.00
9249;BME280;4660;41.768;26.198;2023-01-08T14:32:23;101452.25;;;11.17;100.00
9249;BME280;4660;41.768;26.198;2023-01-08T14:34:58;101458.41;;;11.08;100.00
9249;BME280;4660;41.768;26.198;2023-01-08T14:37:27;101476.03;;;11.01;100.00
9249;BME280;4660;41.768;26.198;2023-01-08T14:39:52;101472.00;;;10.95;100.00
9249;BME280;4660;41.768;26.198;2023-01-08T14:45:27;101483.66;;;10.62;100.00
9249;BME280;4660;41.768;26.198;2023-01-08T14:47:58;101467.16;;;10.44;100.00
9249;BME280;4660;41.768;26.198;2023-01-08T14:50:36;101472.66;;;10.32;100.00